sensor_id;sensor_type;location;lat;lon;timestamp;P1;durP1;ratioP1;P2;durP2;ratioP2
4754;SDS011;2391;47.212;7.542;2023-04-21T00:01:20;4.83;;;4.47;;
4754;SDS011;2391;47.212;7.542;2023-04-21T00:03:46;4.93;;;4.53;;
4754;SDS011;2391;47.212;7.542;2023-04-21T00:06:12;4.70;;;4.30;;
4754;SDS011;2391;47.212;7.542;2023-04-21T00:08:38;4.77;;;4.37;;
4754;SDS011;2391;47.212;7.542;2023-04-21T00:11:07;7.30;;;4.73;;
4754;SDS011;2391;47.212;7.542;2023-04-21T00:13:36;5.30;;;4.80;;
4754;SDS011;2391;47.212;7.542;2023-04-21T00:16:03;5.70;;;5.20;;
4754;SDS011;2391;47.212;7.542;2023-04-21T00:18:30;4.43;;;4.07;;
4754;SDS011;2391;47.212;7.542;2023-04-21T00:20:56;5.83;;;5.30;;
4754;SDS011;2391;47.212;7.542;2023-04-21T00:23:21;6.83;;;6.17;;
4754;SDS011;2391;47.212;7.542;2023-04-21T00:25:47;6.40;;;5.33;;
4754;SDS011;2391;47.212;7.542;2023-04-21T00:28:13;6.73;;;6.00;;
4754;SDS011;2391;47.212;7.542;2023-04-21T00:30:39;6.37;;;5.60;;
4754;SDS011;2391;47.212;7.542;2023-04-21T00:33:05;7.40;;;5.80;;
4754;SDS011;2391;47.212;7.542;2023-04-21T00:35:30;5.93;;;4.80;;
4754;SDS011;2391;47.212;7.542;2023-04-21T00:37:56;7.30;;;6.50;;
4754;SDS011;2391;47.212;7.542;2023-04-21T00:40:22;8.27;;;5.60;;
4754;SDS011;2391;47.212;7.542;2023-04-21T00:42:48;9.90;;;6.00;;
4754;SDS011;2391;47.212;7.542;2023-04-21T00:45:14;8.93;;;7.23;;
4754;SDS011;2391;47.212;7.542;2023-04-21T00:47:40;10.53;;;6.50;;
4754;SDS011;2391;47.212;7.542;2023-04-21T00:50:06;8.37;;;7.00;;
4754;SDS011;2391;47.212;7.542;2023-04-21T00:52:33;9.70;;;7.27;;
4754;SDS011;2391;47.212;7.542;2023-04-21T00:54:59;11.40;;;8.40;;
4754;SDS011;2391;47.212;7.542;2023-04-21T00:57:26;11.40;;;7.37;;
4754;SDS011;2391;47.212;7.542;2023-04-21T00:59:53;11.50;;;8.17;;
4754;SDS011;2391;47.212;7.542;2023-04-21T01:02:19;11.57;;;7.80;;
4754;SDS011;2391;47.212;7.542;2023-04-21T01:04:46;13.70;;;8.87;;
4754;SDS011;2391;47.212;7.542;2023-04-21T01:07:13;11.30;;;8.17;;
4754;SDS011;2391;47.212;7.542;2023-04-21T01:09:39;13.40;;;8.73;;
4754;SDS011;2391;47.212;7.542;2023-04-21T01:14:34;12.97;;;8.77;;
4754;SDS011;2391;47.212;7.542;2023-04-21T01:17:01;14.20;;;9.70;;
4754;SDS011;2391;47.212;7.542;2023-04-21T01:19:29;14.90;;;9.13;;
4754;SDS011;2391;47.212;7.542;2023-04-21T01:21:59;13.40;;;9.17;;
4754;SDS011;2391;47.212;7.542;2023-04-21T01:24:34;14.10;;;9.73;;
4754;SDS011;2391;47.212;7.542;2023-04-21T01:27:07;19.10;;;11.30;;
4754;SDS011;2391;47.212;7.542;2023-04-21T01:29:37;17.67;;;11.40;;
4754;SDS011;2391;47.212;7.542;2023-04-21T01:32:05;32.50;;;11.70;;
4754;SDS011;2391;47.212;7.542;2023-04-21T01:34:36;25.80;;;11.80;;
4754;SDS011;2391;47.212;7.542;2023-04-21T01:37:05;19.60;;;11.20;;
4754;SDS011;2391;47.212;7.542;2023-04-21T01:39:38;20.80;;;11.43;;
4754;SDS011;2391;47.212;7.542;2023-04-21T01:42:05;17.47;;;11.37;;
4754;SDS011;2391;47.212;7.542;2023-04-21T01:44:32;20.70;;;12.13;;
4754;SDS011;2391;47.212;7.542;2023-04-21T01:46:57;15.77;;;10.90;;
4754;SDS011;2391;47.212;7.542;2023-04-21T01:49:23;18.70;;;11.03;;
4754;SDS011;2391;47.212;7.542;2023-04-21T01:51:49;19.80;;;12.30;;
4754;SDS011;2391;47.212;7.542;2023-04-21T01:54:14;21.80;;;12.50;;
4754;SDS011;2391;47.212;7.542;2023-04-21T01:56:40;16.63;;;11.40;;
4754;SDS011;2391;47.212;7.542;2023-04-21T01:59:06;20.70;;;12.67;;
4754;SDS011;2391;47.212;7.542;2023-04-21T02:01:32;27.60;;;12.43;;
4754;SDS011;2391;47.212;7.542;2023-04-21T02:03:57;22.53;;;14.17;;
4754;SDS011;2391;47.212;7.542;2023-04-21T02:06:23;22.47;;;12.80;;
4754;SDS011;2391;47.212;7.542;2023-04-21T02:08:49;17.53;;;12.00;;
4754;SDS011;2391;47.212;7.542;2023-04-21T02:11:14;20.57;;;12.93;;
4754;SDS011;2391;47.212;7.542;2023-04-21T02:13:40;26.70;;;14.20;;
4754;SDS011;2391;47.212;7.542;2023-04-21T02:16:06;24.17;;;13.80;;
4754;SDS011;2391;47.212;7.542;2023-04-21T02:18:32;23.67;;;12.60;;
4754;SDS011;2391;47.212;7.542;2023-04-21T02:20:59;21.03;;;12.83;;
4754;SDS011;2391;47.212;7.542;2023-04-21T02:23:27;23.67;;;13.30;;
4754;SDS011;2391;47.212;7.542;2023-04-21T02:25:52;25.07;;;13.60;;
4754;SDS011;2391;47.212;7.542;2023-04-21T02:28:18;26.80;;;12.93;;
4754;SDS011;2391;47.212;7.542;2023-04-21T02:30:44;25.37;;;13.80;;
4754;SDS011;2391;47.212;7.542;2023-04-21T02:33:10;25.90;;;13.73;;
4754;SDS011;2391;47.212;7.542;2023-04-21T02:35:35;23.30;;;11.80;;
4754;SDS011;2391;47.212;7.542;2023-04-21T02:38:01;23.57;;;12.70;;
4754;SDS011;2391;47.212;7.542;2023-04-21T02:40:29;22.77;;;12.93;;
4754;SDS011;2391;47.212;7.542;2023-04-21T02:42:55;25.87;;;13.43;;
4754;SDS011;2391;47.212;7.542;2023-04-21T02:45:20;25.53;;;12.10;;
4754;SDS011;2391;47.212;7.542;2023-04-21T02:47:46;27.17;;;13.67;;
4754;SDS011;2391;47.212;7.542;2023-04-21T02:50:18;27.00;;;14.33;;
4754;SDS011;2391;47.212;7.542;2023-04-21T02:52:44;23.70;;;13.83;;
4754;SDS011;2391;47.212;7.542;2023-04-21T02:55:09;24.60;;;12.63;;
4754;SDS011;2391;47.212;7.542;2023-04-21T02:57:35;23.00;;;12.40;;
4754;SDS011;2391;47.212;7.542;2023-04-21T03:00:01;20.87;;;11.77;;
4754;SDS011;2391;47.212;7.542;2023-04-21T03:02:29;21.40;;;12.70;;
4754;SDS011;2391;47.212;7.542;2023-04-21T03:04:55;21.50;;;11.90;;
4754;SDS011;2391;47.212;7.542;2023-04-21T03:07:21;22.20;;;11.83;;
4754;SDS011;2391;47.212;7.542;2023-04-21T03:09:46;22.33;;;13.17;;
4754;SDS011;2391;47.212;7.542;2023-04-21T03:12:12;22.17;;;12.57;;
4754;SDS011;2391;47.212;7.542;2023-04-21T03:14:38;25.17;;;12.87;;
4754;SDS011;2391;47.212;7.542;2023-04-21T03:17:04;25.13;;;12.17;;
4754;SDS011;2391;47.212;7.542;2023-04-21T03:19:29;25.10;;;13.17;;
4754;SDS011;2391;47.212;7.542;2023-04-21T03:21:55;21.37;;;11.53;;
4754;SDS011;2391;47.212;7.542;2023-04-21T03:24:21;23.40;;;12.73;;
4754;SDS011;2391;47.212;7.542;2023-04-21T03:26:47;24.03;;;12.67;;
4754;SDS011;2391;47.212;7.542;2023-04-21T03:29:13;20.90;;;12.13;;
4754;SDS011;2391;47.212;7.542;2023-04-21T03:31:38;18.67;;;11.07;;
4754;SDS011;2391;47.212;7.542;2023-04-21T03:34:04;18.77;;;11.07;;
4754;SDS011;2391;47.212;7.542;2023-04-21T03:36:30;17.13;;;10.67;;
4754;SDS011;2391;47.212;7.542;2023-04-21T03:38:56;21.90;;;12.27;;
4754;SDS011;2391;47.212;7.542;2023-04-21T03:41:23;18.73;;;11.57;;
4754;SDS011;2391;47.212;7.542;2023-04-21T03:43:49;17.53;;;10.93;;
4754;SDS011;2391;47.212;7.542;2023-04-21T03:46:19;20.20;;;12.70;;
4754;SDS011;2391;47.212;7.542;2023-04-21T03:48:46;21.07;;;11.93;;
4754;SDS011;2391;47.212;7.542;2023-04-21T03:51:12;18.40;;;11.20;;
4754;SDS011;2391;47.212;7.542;2023-04-21T03:53:38;18.53;;;11.20;;
4754;SDS011;2391;47.212;7.542;2023-04-21T03:56:05;17.87;;;11.50;;
4754;SDS011;2391;47.212;7.542;2023-04-21T03:58:31;22.90;;;12.40;;
4754;SDS011;2391;47.212;7.542;2023-04-21T04:00:57;21.77;;;12.50;;
4754;SDS011;2391;47.212;7.542;2023-04-21T04:03:22;21.70;;;13.50;;
4754;SDS011;2391;47.212;7.542;2023-04-21T04:05:48;18.20;;;11.43;;
4754;SDS011;2391;47.212;7.542;2023-04-21T04:08:14;20.50;;;12.30;;
4754;SDS011;2391;47.212;7.542;2023-04-21T04:10:40;24.43;;;11.40;;
4754;SDS011;2391;47.212;7.542;2023-04-21T04:13:05;19.40;;;11.07;;
4754;SDS011;2391;47.212;7.542;2023-04-21T04:15:31;17.00;;;10.30;;
4754;SDS011;2391;47.212;7.542;2023-04-21T04:17:57;15.30;;;10.60;;
4754;SDS011;2391;47.212;7.542;2023-04-21T04:20:23;16.23;;;9.97;;
4754;SDS011;2391;47.212;7.542;2023-04-21T04:22:48;16.50;;;10.00;;
4754;SDS011;2391;47.212;7.542;2023-04-21T04:25:14;15.80;;;9.93;;
4754;SDS011;2391;47.212;7.542;2023-04-21T04:27:47;15.60;;;10.33;;
4754;SDS011;2391;47.212;7.542;2023-04-21T04:30:15;17.20;;;11.43;;
4754;SDS011;2391;47.212;7.542;2023-04-21T04:32:41;17.40;;;11.17;;
4754;SDS011;2391;47.212;7.542;2023-04-21T04:35:07;18.37;;;11.33;;
4754;SDS011;2391;47.212;7.542;2023-04-21T04:37:40;19.57;;;11.30;;
4754;SDS011;2391;47.212;7.542;2023-04-21T04:40:12;17.13;;;11.43;;
4754;SDS011;2391;47.212;7.542;2023-04-21T04:42:38;16.70;;;10.90;;
4754;SDS011;2391;47.212;7.542;2023-04-21T04:45:04;16.30;;;11.10;;
4754;SDS011;2391;47.212;7.542;2023-04-21T04:47:33;17.37;;;10.77;;
4754;SDS011;2391;47.212;7.542;2023-04-21T04:50:01;15.17;;;10.30;;
4754;SDS011;2391;47.212;7.542;2023-04-21T04:52:28;17.40;;;11.37;;
4754;SDS011;2391;47.212;7.542;2023-04-21T04:54:54;16.80;;;11.10;;
4754;SDS011;2391;47.212;7.542;2023-04-21T04:57:19;20.80;;;12.10;;
4754;SDS011;2391;47.212;7.542;2023-04-21T04:59:45;18.17;;;11.57;;
4754;SDS011;2391;47.212;7.542;2023-04-21T05:02:11;20.00;;;11.10;;
4754;SDS011;2391;47.212;7.542;2023-04-21T05:04:37;18.43;;;11.57;;
4754;SDS011;2391;47.212;7.542;2023-04-21T05:07:03;16.13;;;10.40;;
4754;SDS011;2391;47.212;7.542;2023-04-21T05:09:31;19.47;;;11.83;;
4754;SDS011;2391;47.212;7.542;2023-04-21T05:11:58;20.23;;;11.47;;
4754;SDS011;2391;47.212;7.542;2023-04-21T05:14:24;16.90;;;11.33;;
4754;SDS011;2391;47.212;7.542;2023-04-21T05:16:51;16.73;;;10.63;;
4754;SDS011;2391;47.212;7.542;2023-04-21T05:19:17;18.43;;;11.60;;
4754;SDS011;2391;47.212;7.542;2023-04-21T05:21:48;17.70;;;11.20;;
4754;SDS011;2391;47.212;7.542;2023-04-21T05:24:15;18.60;;;12.23;;
4754;SDS011;2391;47.212;7.542;2023-04-21T05:26:41;21.63;;;12.00;;
4754;SDS011;2391;47.212;7.542;2023-04-21T05:29:06;18.13;;;11.30;;
4754;SDS011;2391;47.212;7.542;2023-04-21T05:31:32;22.53;;;12.40;;
4754;SDS011;2391;47.212;7.542;2023-04-21T05:33:59;17.63;;;11.23;;
4754;SDS011;2391;47.212;7.542;2023-04-21T05:36:25;17.87;;;11.73;;
4754;SDS011;2391;47.212;7.542;2023-04-21T05:38:55;20.00;;;11.57;;
4754;SDS011;2391;47.212;7.542;2023-04-21T05:41:20;20.63;;;11.93;;
4754;SDS011;2391;47.212;7.542;2023-04-21T05:43:47;16.40;;;10.70;;
4754;SDS011;2391;47.212;7.542;2023-04-21T05:46:13;17.17;;;11.07;;
4754;SDS011;2391;47.212;7.542;2023-04-21T05:48:39;17.40;;;10.53;;
4754;SDS011;2391;47.212;7.542;2023-04-21T05:51:11;19.20;;;11.77;;
4754;SDS011;2391;47.212;7.542;2023-04-21T05:53:40;24.60;;;13.27;;
4754;SDS011;2391;47.212;7.542;2023-04-21T05:56:07;19.47;;;11.40;;
4754;SDS011;2391;47.212;7.542;2023-04-21T05:58:34;20.30;;;11.70;;
4754;SDS011;2391;47.212;7.542;2023-04-21T06:01:00;20.20;;;11.73;;
4754;SDS011;2391;47.212;7.542;2023-04-21T06:03:26;17.20;;;10.87;;
4754;SDS011;2391;47.212;7.542;2023-04-21T06:05:53;23.53;;;12.30;;
4754;SDS011;2391;47.212;7.542;2023-04-21T06:08:19;19.10;;;11.93;;
4754;SDS011;2391;47.212;7.542;2023-04-21T06:10:46;23.27;;;12.57;;
4754;SDS011;2391;47.212;7.542;2023-04-21T06:13:11;20.27;;;12.53;;
4754;SDS011;2391;47.212;7.542;2023-04-21T06:15:37;21.07;;;11.90;;
4754;SDS011;2391;47.212;7.542;2023-04-21T06:18:03;19.33;;;12.47;;
4754;SDS011;2391;47.212;7.542;2023-04-21T06:20:28;26.20;;;13.47;;
4754;SDS011;2391;47.212;7.542;2023-04-21T06:22:54;20.57;;;12.30;;
4754;SDS011;2391;47.212;7.542;2023-04-21T06:25:20;20.40;;;12.30;;
4754;SDS011;2391;47.212;7.542;2023-04-21T06:27:46;21.47;;;12.83;;
4754;SDS011;2391;47.212;7.542;2023-04-21T06:30:12;19.80;;;13.60;;
4754;SDS011;2391;47.212;7.542;2023-04-21T06:32:39;21.77;;;13.60;;
4754;SDS011;2391;47.212;7.542;2023-04-21T06:35:07;19.20;;;12.30;;
4754;SDS011;2391;47.212;7.542;2023-04-21T06:37:33;23.53;;;14.50;;
4754;SDS011;2391;47.212;7.542;2023-04-21T06:39:59;20.60;;;13.10;;
4754;SDS011;2391;47.212;7.542;2023-04-21T06:42:25;21.10;;;13.47;;
4754;SDS011;2391;47.212;7.542;2023-04-21T06:44:50;21.60;;;13.20;;
4754;SDS011;2391;47.212;7.542;2023-04-21T06:47:16;24.13;;;13.30;;
4754;SDS011;2391;47.212;7.542;2023-04-21T06:49:42;25.37;;;15.20;;
4754;SDS011;2391;47.212;7.542;2023-04-21T06:52:07;25.60;;;13.63;;
4754;SDS011;2391;47.212;7.542;2023-04-21T06:54:42;23.17;;;13.63;;
4754;SDS011;2391;47.212;7.542;2023-04-21T06:57:08;26.77;;;14.23;;
4754;SDS011;2391;47.212;7.542;2023-04-21T06:59:34;23.17;;;13.47;;
4754;SDS011;2391;47.212;7.542;2023-04-21T07:01:59;23.70;;;14.10;;
4754;SDS011;2391;47.212;7.542;2023-04-21T07:04:28;21.83;;;13.13;;
4754;SDS011;2391;47.212;7.542;2023-04-21T07:06:56;25.53;;;14.40;;
4754;SDS011;2391;47.212;7.542;2023-04-21T07:09:22;23.90;;;13.83;;
4754;SDS011;2391;47.212;7.542;2023-04-21T07:11:49;20.10;;;12.73;;
4754;SDS011;2391;47.212;7.542;2023-04-21T07:14:15;20.70;;;12.40;;
4754;SDS011;2391;47.212;7.542;2023-04-21T07:16:40;24.03;;;13.70;;
4754;SDS011;2391;47.212;7.542;2023-04-21T07:19:06;25.53;;;14.77;;
4754;SDS011;2391;47.212;7.542;2023-04-21T07:21:32;23.53;;;14.37;;
4754;SDS011;2391;47.212;7.542;2023-04-21T07:23:59;24.20;;;13.67;;
4754;SDS011;2391;47.212;7.542;2023-04-21T07:26:25;24.07;;;13.83;;
4754;SDS011;2391;47.212;7.542;2023-04-21T07:28:51;28.47;;;14.40;;
4754;SDS011;2391;47.212;7.542;2023-04-21T07:31:17;24.83;;;14.73;;
4754;SDS011;2391;47.212;7.542;2023-04-21T07:33:42;28.70;;;15.80;;
4754;SDS011;2391;47.212;7.542;2023-04-21T07:36:08;26.47;;;15.70;;
4754;SDS011;2391;47.212;7.542;2023-04-21T07:38:34;24.07;;;14.93;;
4754;SDS011;2391;47.212;7.542;2023-04-21T07:41:00;24.60;;;15.13;;
4754;SDS011;2391;47.212;7.542;2023-04-21T07:43:26;30.07;;;16.43;;
4754;SDS011;2391;47.212;7.542;2023-04-21T07:45:51;25.37;;;16.13;;
4754;SDS011;2391;47.212;7.542;2023-04-21T07:48:17;26.83;;;16.07;;
4754;SDS011;2391;47.212;7.542;2023-04-21T07:50:43;25.17;;;14.30;;
4754;SDS011;2391;47.212;7.542;2023-04-21T07:53:09;23.53;;;14.90;;
4754;SDS011;2391;47.212;7.542;2023-04-21T07:55:35;26.47;;;15.77;;
4754;SDS011;2391;47.212;7.542;2023-04-21T07:58:03;27.40;;;14.73;;
4754;SDS011;2391;47.212;7.542;2023-04-21T08:00:29;23.70;;;14.40;;
4754;SDS011;2391;47.212;7.542;2023-04-21T08:02:55;26.10;;;15.30;;
4754;SDS011;2391;47.212;7.542;2023-04-21T08:05:21;25.27;;;14.90;;
4754;SDS011;2391;47.212;7.542;2023-04-21T08:07:46;28.47;;;15.27;;
4754;SDS011;2391;47.212;7.542;2023-04-21T08:10:12;29.47;;;16.20;;
4754;SDS011;2391;47.212;7.542;2023-04-21T08:12:38;25.73;;;15.83;;
4754;SDS011;2391;47.212;7.542;2023-04-21T08:15:04;25.00;;;14.97;;
4754;SDS011;2391;47.212;7.542;2023-04-21T08:17:32;26.00;;;15.50;;
4754;SDS011;2391;47.212;7.542;2023-04-21T08:19:58;25.50;;;16.60;;
4754;SDS011;2391;47.212;7.542;2023-04-21T08:22:24;28.53;;;17.00;;
4754;SDS011;2391;47.212;7.542;2023-04-21T08:24:50;30.63;;;18.27;;
4754;SDS011;2391;47.212;7.542;2023-04-21T08:27:15;30.87;;;17.40;;
4754;SDS011;2391;47.212;7.542;2023-04-21T08:29:41;26.17;;;15.17;;
4754;SDS011;2391;47.212;7.542;2023-04-21T08:32:07;30.30;;;15.83;;
4754;SDS011;2391;47.212;7.542;2023-04-21T08:34:33;25.87;;;15.77;;
4754;SDS011;2391;47.212;7.542;2023-04-21T08:36:58;27.50;;;16.87;;
4754;SDS011;2391;47.212;7.542;2023-04-21T08:39:24;29.17;;;17.37;;
4754;SDS011;2391;47.212;7.542;2023-04-21T08:41:57;29.07;;;17.30;;
4754;SDS011;2391;47.212;7.542;2023-04-21T08:44:23;27.97;;;16.37;;
4754;SDS011;2391;47.212;7.542;2023-04-21T08:46:49;28.77;;;16.50;;
4754;SDS011;2391;47.212;7.542;2023-04-21T08:49:17;24.77;;;15.83;;
4754;SDS011;2391;47.212;7.542;2023-04-21T08:51:45;27.50;;;16.63;;
4754;SDS011;2391;47.212;7.542;2023-04-21T08:54:11;30.83;;;18.00;;
4754;SDS011;2391;47.212;7.542;2023-04-21T08:56:38;28.23;;;18.40;;
4754;SDS011;2391;47.212;7.542;2023-04-21T08:59:05;28.50;;;17.00;;
4754;SDS011;2391;47.212;7.542;2023-04-21T09:01:30;24.83;;;14.80;;
4754;SDS011;2391;47.212;7.542;2023-04-21T09:04:14;21.43;;;14.07;;
4754;SDS011;2391;47.212;7.542;2023-04-21T09:06:43;21.17;;;14.10;;
4754;SDS011;2391;47.212;7.542;2023-04-21T09:09:10;23.33;;;13.90;;
4754;SDS011;2391;47.212;7.542;2023-04-21T09:11:36;25.00;;;16.40;;
4754;SDS011;2391;47.212;7.542;2023-04-21T09:14:03;29.73;;;17.50;;
4754;SDS011;2391;47.212;7.542;2023-04-21T09:16:30;24.33;;;15.80;;
4754;SDS011;2391;47.212;7.542;2023-04-21T09:18:59;27.07;;;16.77;;
4754;SDS011;2391;47.212;7.542;2023-04-21T09:21:31;24.70;;;16.53;;
4754;SDS011;2391;47.212;7.542;2023-04-21T09:23:57;28.73;;;18.07;;
4754;SDS011;2391;47.212;7.542;2023-04-21T09:26:26;26.00;;;16.73;;
4754;SDS011;2391;47.212;7.542;2023-04-21T09:28:52;25.30;;;16.70;;
4754;SDS011;2391;47.212;7.542;2023-04-21T09:31:19;26.00;;;16.20;;
4754;SDS011;2391;47.212;7.542;2023-04-21T09:33:49;27.17;;;16.90;;
4754;SDS011;2391;47.212;7.542;2023-04-21T09:36:20;25.50;;;16.33;;
4754;SDS011;2391;47.212;7.542;2023-04-21T09:41:22;27.50;;;17.50;;
4754;SDS011;2391;47.212;7.542;2023-04-21T09:43:55;24.30;;;15.63;;
4754;SDS011;2391;47.212;7.542;2023-04-21T09:46:23;21.90;;;15.03;;
4754;SDS011;2391;47.212;7.542;2023-04-21T09:48:49;19.77;;;13.50;;
4754;SDS011;2391;47.212;7.542;2023-04-21T09:51:17;24.70;;;14.53;;
4754;SDS011;2391;47.212;7.542;2023-04-21T09:53:43;19.53;;;13.97;;
4754;SDS011;2391;47.212;7.542;2023-04-21T09:56:14;21.37;;;13.23;;
4754;SDS011;2391;47.212;7.542;2023-04-21T09:58:50;20.07;;;13.60;;
4754;SDS011;2391;47.212;7.542;2023-04-21T10:01:16;20.23;;;14.10;;
4754;SDS011;2391;47.212;7.542;2023-04-21T10:03:43;20.70;;;13.60;;
4754;SDS011;2391;47.212;7.542;2023-04-21T10:06:11;17.13;;;12.03;;
4754;SDS011;2391;47.212;7.542;2023-04-21T10:08:37;16.87;;;12.00;;
4754;SDS011;2391;47.212;7.542;2023-04-21T10:11:03;18.03;;;12.97;;
4754;SDS011;2391;47.212;7.542;2023-04-21T10:13:31;20.63;;;13.27;;
4754;SDS011;2391;47.212;7.542;2023-04-21T10:16:00;18.17;;;12.67;;
4754;SDS011;2391;47.212;7.542;2023-04-21T10:18:29;17.60;;;12.10;;
4754;SDS011;2391;47.212;7.542;2023-04-21T10:23:34;18.90;;;12.40;;
4754;SDS011;2391;47.212;7.542;2023-04-21T10:26:15;16.97;;;12.63;;
4754;SDS011;2391;47.212;7.542;2023-04-21T10:36:47;15.47;;;11.10;;
4754;SDS011;2391;47.212;7.542;2023-04-21T10:45:01;12.57;;;8.67;;
4754;SDS011;2391;47.212;7.542;2023-04-21T10:50:23;14.40;;;10.73;;
4754;SDS011;2391;47.212;7.542;2023-04-21T10:52:55;16.77;;;9.90;;
4754;SDS011;2391;47.212;7.542;2023-04-21T10:55:27;13.67;;;9.93;;
4754;SDS011;2391;47.212;7.542;2023-04-21T10:57:54;14.77;;;10.53;;
4754;SDS011;2391;47.212;7.542;2023-04-21T11:00:21;18.27;;;10.13;;
4754;SDS011;2391;47.212;7.542;2023-04-21T11:03:06;14.80;;;10.90;;
4754;SDS011;2391;47.212;7.542;2023-04-21T11:05:30;15.13;;;10.40;;
4754;SDS011;2391;47.212;7.542;2023-04-21T11:08:03;17.93;;;11.73;;
4754;SDS011;2391;47.212;7.542;2023-04-21T11:13:11;15.10;;;10.50;;
4754;SDS011;2391;47.212;7.542;2023-04-21T11:15:37;14.70;;;10.30;;
4754;SDS011;2391;47.212;7.542;2023-04-21T11:18:04;17.43;;;10.07;;
4754;SDS011;2391;47.212;7.542;2023-04-21T11:20:32;13.60;;;9.37;;
4754;SDS011;2391;47.212;7.542;2023-04-21T11:22:58;13.30;;;9.37;;
4754;SDS011;2391;47.212;7.542;2023-04-21T11:25:24;15.83;;;9.53;;
4754;SDS011;2391;47.212;7.542;2023-04-21T11:27:53;13.77;;;8.23;;
4754;SDS011;2391;47.212;7.542;2023-04-21T11:30:21;13.97;;;9.77;;
4754;SDS011;2391;47.212;7.542;2023-04-21T11:32:53;16.10;;;10.30;;
4754;SDS011;2391;47.212;7.542;2023-04-21T11:35:20;15.80;;;10.33;;
4754;SDS011;2391;47.212;7.542;2023-04-21T11:37:48;16.20;;;10.40;;
4754;SDS011;2391;47.212;7.542;2023-04-21T11:40:15;13.47;;;9.07;;
4754;SDS011;2391;47.212;7.542;2023-04-21T11:42:41;15.73;;;9.93;;
4754;SDS011;2391;47.212;7.542;2023-04-21T11:45:07;14.30;;;9.60;;
4754;SDS011;2391;47.212;7.542;2023-04-21T11:47:37;14.07;;;9.53;;
4754;SDS011;2391;47.212;7.542;2023-04-21T11:50:04;14.57;;;9.23;;
4754;SDS011;2391;47.212;7.542;2023-04-21T11:52:31;12.40;;;8.57;;
4754;SDS011;2391;47.212;7.542;2023-04-21T11:57:31;13.60;;;9.10;;
4754;SDS011;2391;47.212;7.542;2023-04-21T11:59:58;17.83;;;9.87;;
4754;SDS011;2391;47.212;7.542;2023-04-21T12:02:27;11.10;;;8.57;;
4754;SDS011;2391;47.212;7.542;2023-04-21T12:07:30;11.37;;;8.73;;
4754;SDS011;2391;47.212;7.542;2023-04-21T12:09:58;9.80;;;7.67;;
4754;SDS011;2391;47.212;7.542;2023-04-21T12:12:25;10.93;;;7.67;;
4754;SDS011;2391;47.212;7.542;2023-04-21T12:14:51;10.97;;;8.17;;
4754;SDS011;2391;47.212;7.542;2023-04-21T12:17:17;11.10;;;7.93;;
4754;SDS011;2391;47.212;7.542;2023-04-21T12:19:44;10.03;;;8.23;;
4754;SDS011;2391;47.212;7.542;2023-04-21T12:22:14;11.37;;;8.30;;
4754;SDS011;2391;47.212;7.542;2023-04-21T12:24:47;10.50;;;7.97;;
4754;SDS011;2391;47.212;7.542;2023-04-21T12:27:13;11.60;;;8.10;;
4754;SDS011;2391;47.212;7.542;2023-04-21T12:29:39;11.93;;;9.00;;
4754;SDS011;2391;47.212;7.542;2023-04-21T12:32:06;11.80;;;8.93;;
4754;SDS011;2391;47.212;7.542;2023-04-21T12:34:34;10.50;;;7.67;;
4754;SDS011;2391;47.212;7.542;2023-04-21T12:37:00;11.43;;;8.60;;
4754;SDS011;2391;47.212;7.542;2023-04-21T12:39:27;12.97;;;9.37;;
4754;SDS011;2391;47.212;7.542;2023-04-21T12:41:53;11.30;;;8.20;;
4754;SDS011;2391;47.212;7.542;2023-04-21T12:44:19;13.00;;;8.20;;
4754;SDS011;2391;47.212;7.542;2023-04-21T12:46:45;11.40;;;8.63;;
4754;SDS011;2391;47.212;7.542;2023-04-21T12:49:13;11.27;;;8.50;;
4754;SDS011;2391;47.212;7.542;2023-04-21T12:51:40;12.63;;;8.50;;
4754;SDS011;2391;47.212;7.542;2023-04-21T12:54:06;11.53;;;8.87;;
4754;SDS011;2391;47.212;7.542;2023-04-21T12:56:31;11.67;;;8.70;;
4754;SDS011;2391;47.212;7.542;2023-04-21T12:58:57;11.90;;;8.53;;
4754;SDS011;2391;47.212;7.542;2023-04-21T13:01:23;10.40;;;8.23;;
4754;SDS011;2391;47.212;7.542;2023-04-21T13:03:49;10.73;;;8.30;;
4754;SDS011;2391;47.212;7.542;2023-04-21T13:06:15;12.23;;;8.60;;
4754;SDS011;2391;47.212;7.542;2023-04-21T13:08:41;11.30;;;8.43;;
4754;SDS011;2391;47.212;7.542;2023-04-21T13:11:07;12.20;;;8.83;;
4754;SDS011;2391;47.212;7.542;2023-04-21T13:13:33;12.10;;;8.97;;
4754;SDS011;2391;47.212;7.542;2023-04-21T13:15:58;10.27;;;7.80;;
4754;SDS011;2391;47.212;7.542;2023-04-21T13:18:30;10.10;;;7.97;;
4754;SDS011;2391;47.212;7.542;2023-04-21T13:20:59;10.37;;;7.73;;
4754;SDS011;2391;47.212;7.542;2023-04-21T13:23:26;9.80;;;7.67;;
4754;SDS011;2391;47.212;7.542;2023-04-21T13:25:57;9.80;;;7.80;;
4754;SDS011;2391;47.212;7.542;2023-04-21T13:28:23;6.50;;;5.80;;
4754;SDS011;2391;47.212;7.542;2023-04-21T13:30:52;7.63;;;6.83;;
4754;SDS011;2391;47.212;7.542;2023-04-21T13:33:19;7.60;;;6.13;;
4754;SDS011;2391;47.212;7.542;2023-04-21T13:35:45;7.17;;;6.47;;
4754;SDS011;2391;47.212;7.542;2023-04-21T13:38:20;7.27;;;6.10;;
4754;SDS011;2391;47.212;7.542;2023-04-21T13:40:46;6.73;;;5.47;;
4754;SDS011;2391;47.212;7.542;2023-04-21T13:43:20;6.63;;;5.77;;
4754;SDS011;2391;47.212;7.542;2023-04-21T13:45:52;6.73;;;6.03;;
4754;SDS011;2391;47.212;7.542;2023-04-21T13:48:19;6.37;;;5.73;;
4754;SDS011;2391;47.212;7.542;2023-04-21T13:50:46;7.10;;;5.70;;
4754;SDS011;2391;47.212;7.542;2023-04-21T13:53:12;7.50;;;5.70;;
4754;SDS011;2391;47.212;7.542;2023-04-21T13:55:40;10.13;;;6.10;;
4754;SDS011;2391;47.212;7.542;2023-04-21T13:58:07;7.10;;;5.60;;
4754;SDS011;2391;47.212;7.542;2023-04-21T14:00:35;7.10;;;6.20;;
4754;SDS011;2391;47.212;7.542;2023-04-21T14:03:02;7.07;;;5.83;;
4754;SDS011;2391;47.212;7.542;2023-04-21T14:05:36;5.93;;;5.33;;
4754;SDS011;2391;47.212;7.542;2023-04-21T14:08:02;5.37;;;4.87;;
4754;SDS011;2391;47.212;7.542;2023-04-21T14:10:28;7.50;;;5.17;;
4754;SDS011;2391;47.212;7.542;2023-04-21T14:12:54;5.40;;;4.90;;
4754;SDS011;2391;47.212;7.542;2023-04-21T14:15:26;5.80;;;5.20;;
4754;SDS011;2391;47.212;7.542;2023-04-21T14:17:52;5.33;;;4.83;;
4754;SDS011;2391;47.212;7.542;2023-04-21T14:20:17;6.70;;;5.27;;
4754;SDS011;2391;47.212;7.542;2023-04-21T14:22:43;6.50;;;5.40;;
4754;SDS011;2391;47.212;7.542;2023-04-21T14:25:15;7.90;;;5.30;;
4754;SDS011;2391;47.212;7.542;2023-04-21T14:27:41;7.70;;;6.17;;
4754;SDS011;2391;47.212;7.542;2023-04-21T14:30:07;7.40;;;5.40;;
4754;SDS011;2391;47.212;7.542;2023-04-21T14:32:34;8.47;;;5.90;;
4754;SDS011;2391;47.212;7.542;2023-04-21T14:35:00;5.67;;;5.17;;
4754;SDS011;2391;47.212;7.542;2023-04-21T14:37:28;5.87;;;5.00;;
4754;SDS011;2391;47.212;7.542;2023-04-21T14:42:22;7.17;;;6.03;;
4754;SDS011;2391;47.212;7.542;2023-04-21T14:44:48;7.90;;;6.10;;
4754;SDS011;2391;47.212;7.542;2023-04-21T14:47:14;5.83;;;5.33;;
4754;SDS011;2391;47.212;7.542;2023-04-21T14:49:42;5.93;;;5.30;;
4754;SDS011;2391;47.212;7.542;2023-04-21T14:52:08;6.70;;;5.53;;
4754;SDS011;2391;47.212;7.542;2023-04-21T14:54:33;7.97;;;6.03;;
4754;SDS011;2391;47.212;7.542;2023-04-21T14:56:59;7.00;;;6.30;;
4754;SDS011;2391;47.212;7.542;2023-04-21T14:59:25;7.40;;;5.97;;
4754;SDS011;2391;47.212;7.542;2023-04-21T15:01:51;7.50;;;6.70;;
4754;SDS011;2391;47.212;7.542;2023-04-21T15:04:17;9.23;;;6.07;;
4754;SDS011;2391;47.212;7.542;2023-04-21T15:06:43;6.53;;;5.53;;
4754;SDS011;2391;47.212;7.542;2023-04-21T15:09:09;7.93;;;5.70;;
4754;SDS011;2391;47.212;7.542;2023-04-21T15:11:34;7.50;;;6.10;;
4754;SDS011;2391;47.212;7.542;2023-04-21T15:14:01;9.23;;;7.27;;
4754;SDS011;2391;47.212;7.542;2023-04-21T15:16:26;14.10;;;7.63;;
4754;SDS011;2391;47.212;7.542;2023-04-21T15:18:52;7.10;;;6.00;;
4754;SDS011;2391;47.212;7.542;2023-04-21T15:21:19;7.30;;;6.40;;
4754;SDS011;2391;47.212;7.542;2023-04-21T15:23:45;6.57;;;5.77;;
4754;SDS011;2391;47.212;7.542;2023-04-21T15:26:11;9.00;;;6.70;;
4754;SDS011;2391;47.212;7.542;2023-04-21T15:28:38;7.20;;;5.80;;